createdAt,value
2023-01-27T00:01:52.369Z,27.00
2023-01-27T00:04:56.957Z,27.25
2023-01-27T00:08:00.283Z,28.40
2023-01-27T00:11:32.361Z,26.50
2023-01-27T00:14:35.631Z,27.00
2023-01-27T00:17:39.416Z,25.80
2023-01-27T00:21:01.606Z,28.00
2023-01-27T00:24:22.465Z,26.00
2023-01-27T00:27:27.294Z,26.00
2023-01-27T00:30:30.544Z,28.00
2023-01-27T00:33:32.851Z,28.00
2023-01-27T00:36:38.284Z,29.00
2023-01-27T00:39:41.713Z,28.20
2023-01-27T00:42:46.447Z,25.60
2023-01-27T00:45:52.763Z,27.40
2023-01-27T00:48:56.037Z,27.80
2023-01-27T00:52:00.994Z,25.00
2023-01-27T00:55:04.235Z,28.00
2023-01-27T00:58:07.549Z,24.00
2023-01-27T01:01:13.332Z,24.20
2023-01-27T01:04:16.971Z,24.00
2023-01-27T01:07:24.029Z,24.00
2023-01-27T01:10:27.508Z,24.40
2023-01-27T01:13:30.845Z,24.00
2023-01-27T01:16:34.187Z,24.00
2023-01-27T01:19:37.759Z,23.00
2023-01-27T01:22:42.437Z,25.80
2023-01-27T01:25:53.779Z,26.00
2023-01-27T01:28:57.110Z,26.00
2023-01-27T01:32:00.539Z,24.25
2023-01-27T01:35:03.799Z,23.50
2023-01-27T01:38:09.347Z,26.00
2023-01-27T01:41:15.601Z,26.00
2023-01-27T01:44:21.113Z,27.40
2023-01-27T01:47:24.381Z,27.60
2023-01-27T01:50:27.800Z,24.40
2023-01-27T01:53:38.287Z,27.40
2023-01-27T01:56:48.179Z,28.00
2023-01-27T01:59:55.279Z,27.25
2023-01-27T02:02:58.641Z,27.00
2023-01-27T02:06:03.091Z,25.60
2023-01-27T02:09:08.742Z,24.00
2023-01-27T02:12:12.452Z,27.00
2023-01-27T02:15:16.383Z,25.00
2023-01-27T02:18:19.757Z,27.00
2023-01-27T02:21:23.128Z,28.40
2023-01-27T02:24:35.769Z,28.00
2023-01-27T02:27:41.765Z,28.00
2023-01-27T02:30:45.283Z,26.00
2023-01-27T02:33:48.696Z,26.60
2023-01-27T02:36:56.008Z,29.00
2023-01-27T02:40:03.012Z,26.80
2023-01-27T02:43:07.925Z,27.40
2023-01-27T02:46:11.322Z,28.20
2023-01-27T02:49:14.769Z,26.00
2023-01-27T02:52:18.171Z,28.00
2023-01-27T02:55:22.524Z,26.00
2023-01-27T02:58:29.155Z,27.00
2023-01-27T03:01:38.606Z,27.00
2023-01-27T03:04:42.172Z,25.40
2023-01-27T03:07:45.417Z,25.50
2023-01-27T03:10:51.973Z,28.00
2023-01-27T03:13:59.343Z,27.40
2023-01-27T03:17:19.960Z,26.00
2023-01-27T03:20:23.783Z,24.40
2023-01-27T03:23:27.895Z,26.00
2023-01-27T03:26:31.281Z,27.40
2023-01-27T03:29:54.990Z,24.00
2023-01-27T03:32:59.169Z,25.40
2023-01-27T03:36:46.155Z,26.00
2023-01-27T03:40:06.838Z,28.40
2023-01-27T03:43:27.827Z,26.00
2023-01-27T03:46:32.848Z,26.00
2023-01-27T03:49:36.632Z,26.00
2023-01-27T03:52:39.846Z,24.40
2023-01-27T03:55:43.364Z,22.20
2023-01-27T03:58:47.010Z,24.00
2023-01-27T04:01:51.744Z,24.20
2023-01-27T04:05:12.790Z,24.00
2023-01-27T04:08:16.183Z,24.25
2023-01-27T04:11:36.830Z,23.40
2023-01-27T04:14:42.263Z,24.00
2023-01-27T04:17:47.025Z,23.00
2023-01-27T04:20:50.276Z,23.00
2023-01-27T04:23:53.827Z,23.00
2023-01-27T04:26:59.050Z,24.00
2023-01-27T04:30:02.283Z,21.80
2023-01-27T04:33:10.382Z,24.60
2023-01-27T04:36:14.263Z,23.00
2023-01-27T04:39:18.459Z,22.20
2023-01-27T04:42:21.895Z,25.00
2023-01-27T04:45:25.285Z,25.00
2023-01-27T04:48:30.094Z,26.25
2023-01-27T04:51:34.211Z,23.40
2023-01-27T04:54:37.440Z,19.80
2023-01-27T04:57:40.875Z,23.00
2023-01-27T05:00:44.303Z,24.25
2023-01-27T05:03:49.332Z,22.80
2023-01-27T05:06:52.547Z,24.00
2023-01-27T05:09:55.775Z,22.60
2023-01-27T05:12:59.830Z,22.00
2023-01-27T05:16:12.497Z,23.75
2023-01-27T05:19:17.309Z,24.00
2023-01-27T05:22:20.583Z,22.20
2023-01-27T05:25:23.802Z,24.00
2023-01-27T05:28:28.417Z,22.00
2023-01-27T05:31:32.811Z,26.00
2023-01-27T05:34:37.555Z,22.00
2023-01-27T05:37:40.756Z,23.40
2023-01-27T05:40:44.014Z,24.00
2023-01-27T05:43:52.145Z,22.00
2023-01-27T05:46:55.359Z,22.60
2023-01-27T05:49:59.967Z,22.60
2023-01-27T05:53:03.462Z,22.00
2023-01-27T05:56:09.034Z,23.80
2023-01-27T05:59:13.139Z,24.00
2023-01-27T06:02:16.688Z,23.20
2023-01-27T06:05:21.392Z,23.40
2023-01-27T06:08:26.025Z,22.00
2023-01-27T06:11:29.368Z,22.50
2023-01-27T06:14:32.621Z,24.00
2023-01-27T06:17:35.834Z,24.20
2023-01-27T06:20:41.075Z,24.25
2023-01-27T06:23:44.401Z,23.00
2023-01-27T06:26:47.672Z,24.75
2023-01-27T06:29:51.157Z,25.00
2023-01-27T06:32:54.445Z,24.00
2023-01-27T06:36:03.790Z,26.00
2023-01-27T06:39:07.125Z,26.00
2023-01-27T06:42:10.316Z,25.00
2023-01-27T06:45:14.417Z,24.00
2023-01-27T06:48:17.664Z,24.75
2023-01-27T06:51:22.417Z,27.00
2023-01-27T06:54:25.674Z,24.00
2023-01-27T06:57:28.887Z,25.40
2023-01-27T07:00:32.453Z,24.00
2023-01-27T07:03:35.786Z,25.80
2023-01-27T07:06:40.485Z,26.00
2023-01-27T07:09:52.376Z,26.00
2023-01-27T07:13:06.055Z,24.40
2023-01-27T07:16:09.399Z,24.00
2023-01-27T07:19:13.769Z,26.25
2023-01-27T07:22:18.389Z,27.00
2023-01-27T07:25:21.705Z,24.60
2023-01-27T07:28:25.075Z,24.00
2023-01-27T07:31:28.763Z,27.00
2023-01-27T07:34:32.070Z,24.00
2023-01-27T07:37:38.328Z,24.40
2023-01-27T07:40:41.915Z,23.80
2023-01-27T07:43:45.230Z,26.00
2023-01-27T07:46:50.765Z,21.50
2023-01-27T07:49:54.048Z,24.67
2023-01-27T07:53:01.925Z,23.00
2023-01-27T07:56:05.465Z,24.00
2023-01-27T07:59:10.459Z,23.00
2023-01-27T08:02:14.322Z,23.00
2023-01-27T08:05:17.711Z,23.00
2023-01-27T08:08:22.350Z,24.00
2023-01-27T08:11:25.579Z,25.67
2023-01-27T08:14:28.985Z,21.80
2023-01-27T08:17:32.247Z,22.00
2023-01-27T08:20:35.479Z,22.00
2023-01-27T08:23:40.147Z,24.00
2023-01-27T08:26:43.454Z,22.00
2023-01-27T08:29:47.098Z,25.60
2023-01-27T08:32:50.458Z,25.00
2023-01-27T08:35:53.793Z,27.00
2023-01-27T08:38:58.447Z,24.00
2023-01-27T08:42:01.883Z,24.00
2023-01-27T08:45:05.865Z,23.00
2023-01-27T08:48:14.432Z,20.80
2023-01-27T08:51:17.705Z,23.00
2023-01-27T08:54:22.419Z,27.00
2023-01-27T08:57:25.954Z,23.20
2023-01-27T09:00:29.234Z,24.00
2023-01-27T09:03:35.659Z,24.50
2023-01-27T09:06:38.891Z,25.50
2023-01-27T09:09:43.477Z,23.60
2023-01-27T09:12:47.055Z,23.60
2023-01-27T09:15:53.310Z,25.80
2023-01-27T09:18:57.894Z,28.00
2023-01-27T09:22:01.131Z,25.25
2023-01-27T09:25:06.597Z,24.75
2023-01-27T09:28:17.110Z,25.40
2023-01-27T09:31:20.943Z,26.00
2023-01-27T09:34:24.487Z,27.00
2023-01-27T09:37:28.185Z,26.00
2023-01-27T09:40:36.119Z,26.60
2023-01-27T09:43:56.494Z,26.00
2023-01-27T09:47:24.043Z,26.00
2023-01-27T09:50:40.924Z,26.40
2023-01-27T09:54:14.901Z,27.25
2023-01-27T09:57:30.151Z,27.60
2023-01-27T10:00:46.405Z,27.00
2023-01-27T10:04:04.433Z,29.50
2023-01-27T10:07:33.272Z,25.25
2023-01-27T10:10:59.198Z,26.00
2023-01-27T10:14:19.922Z,27.00
2023-01-27T10:17:35.542Z,25.00
2023-01-27T10:20:47.674Z,27.00
2023-01-27T10:24:02.788Z,27.00
2023-01-27T10:27:13.772Z,27.00
2023-01-27T10:30:27.790Z,26.80
2023-01-27T10:33:50.969Z,27.40
2023-01-27T10:37:02.667Z,28.00
2023-01-27T10:40:13.846Z,28.00
2023-01-27T10:43:27.271Z,25.60
2023-01-27T10:46:44.840Z,27.00
2023-01-27T10:49:53.011Z,27.00
2023-01-27T10:53:02.835Z,26.00
2023-01-27T10:56:13.131Z,24.00
2023-01-27T10:59:24.103Z,27.25
2023-01-27T11:02:38.390Z,25.80
2023-01-27T11:05:47.185Z,24.00
2023-01-27T11:08:54.650Z,28.00
2023-01-27T11:12:02.847Z,26.00
2023-01-27T11:15:18.918Z,26.00
2023-01-27T11:18:28.773Z,25.80
2023-01-27T11:21:34.685Z,25.40
2023-01-27T11:24:45.839Z,25.00
2023-01-27T11:28:06.925Z,26.80
2023-01-27T11:31:22.314Z,26.00
2023-01-27T11:34:33.141Z,28.00
2023-01-27T11:37:38.792Z,27.00
2023-01-27T11:40:42.410Z,28.00
2023-01-27T11:43:46.102Z,26.00
2023-01-27T11:46:51.190Z,26.20
2023-01-27T11:49:57.712Z,27.60
2023-01-27T11:53:11.923Z,27.20
2023-01-27T11:56:20.151Z,27.00
2023-01-27T11:59:27.271Z,28.00
2023-01-27T12:02:36.815Z,28.00
2023-01-27T12:05:47.043Z,26.60
2023-01-27T12:08:50.830Z,29.00
2023-01-27T12:12:11.435Z,28.20
2023-01-27T12:15:17.850Z,28.00
2023-01-27T12:18:23.652Z,28.00
2023-01-27T12:21:40.539Z,29.00
2023-01-27T12:24:51.068Z,28.00
2023-01-27T12:27:58.498Z,29.25
2023-01-27T12:31:07.466Z,28.00
2023-01-27T12:34:24.823Z,27.40
2023-01-27T12:37:34.977Z,29.00
2023-01-27T12:40:43.053Z,28.20
2023-01-27T12:43:54.786Z,28.20
2023-01-27T12:47:02.143Z,29.00
2023-01-27T12:50:24.283Z,29.00
2023-01-27T12:53:29.023Z,28.00
2023-01-27T12:56:35.995Z,29.00
2023-01-27T12:59:49.924Z,28.00
2023-01-27T13:02:57.125Z,29.00
2023-01-27T13:06:01.575Z,28.75
2023-01-27T13:09:06.564Z,27.00
2023-01-27T13:12:18.543Z,28.00
2023-01-27T13:15:24.314Z,27.80
2023-01-27T13:18:35.243Z,28.00
2023-01-27T13:21:39.898Z,29.00
2023-01-27T13:24:47.993Z,26.20
2023-01-27T13:27:55.144Z,23.00
2023-01-27T13:31:05.070Z,28.00
2023-01-27T13:34:18.784Z,29.00
2023-01-27T13:37:29.947Z,28.60
2023-01-27T13:40:41.657Z,27.00
2023-01-27T13:43:53.356Z,29.00
2023-01-27T13:47:02.572Z,26.00
2023-01-27T13:50:17.836Z,27.00
2023-01-27T13:53:21.547Z,27.20
2023-01-27T13:56:38.006Z,28.00
2023-01-27T13:59:50.220Z,26.00
2023-01-27T14:03:15.605Z,27.60
2023-01-27T14:06:38.811Z,27.50
2023-01-27T14:09:54.292Z,27.00
2023-01-27T14:13:11.504Z,27.40
2023-01-27T14:16:21.651Z,28.00
2023-01-27T14:19:36.716Z,31.00
2023-01-27T14:22:48.679Z,27.60
2023-01-27T14:26:00.926Z,25.00
2023-01-27T14:29:14.893Z,28.00
2023-01-27T14:32:29.972Z,27.20
2023-01-27T14:35:44.181Z,27.40
2023-01-27T14:39:01.055Z,27.00
2023-01-27T14:42:14.124Z,26.00
2023-01-27T14:45:24.790Z,29.00
2023-01-27T14:48:44.069Z,26.20
2023-01-27T14:51:52.562Z,28.00
2023-01-27T14:55:16.746Z,26.00
2023-01-27T14:58:35.443Z,27.00
2023-01-27T15:01:49.285Z,26.40
2023-01-27T15:05:03.168Z,26.00
2023-01-27T15:08:19.750Z,25.75
2023-01-27T15:11:40.640Z,28.00
2023-01-27T15:15:07.994Z,27.00
2023-01-27T15:18:37.025Z,26.00
2023-01-27T15:22:18.823Z,24.50
2023-01-27T15:25:33.369Z,23.00
2023-01-27T15:28:41.063Z,22.20
2023-01-27T15:31:44.485Z,25.00
2023-01-27T15:34:54.327Z,26.00
2023-01-27T15:38:02.063Z,24.25
2023-01-27T15:41:12.888Z,25.80
2023-01-27T15:44:18.042Z,25.20
2023-01-27T15:47:26.346Z,25.67
2023-01-27T15:50:34.325Z,26.00
2023-01-27T15:53:44.703Z,23.20
2023-01-27T15:56:52.276Z,23.00
2023-01-27T16:00:03.195Z,20.00
2023-01-27T16:03:22.556Z,23.00
2023-01-27T16:06:27.383Z,24.00
2023-01-27T16:09:40.715Z,25.00
2023-01-27T16:12:48.638Z,21.40
2023-01-27T16:16:31.782Z,21.40
2023-01-27T16:19:40.876Z,22.00
2023-01-27T16:22:49.337Z,26.00
2023-01-27T16:26:03.388Z,22.00
2023-01-27T16:29:27.538Z,20.80
2023-01-27T16:32:38.517Z,20.00
2023-01-27T16:35:45.605Z,20.00
2023-01-27T16:38:51.394Z,20.50
2023-01-27T16:41:59.241Z,22.00
2023-01-27T16:45:10.255Z,20.00
2023-01-27T16:48:25.213Z,19.60
2023-01-27T16:51:30.407Z,23.40
2023-01-27T16:54:38.473Z,20.40
2023-01-27T16:57:46.835Z,20.00
2023-01-27T17:00:52.221Z,20.20
2023-01-27T17:04:07.764Z,20.25
2023-01-27T17:07:21.246Z,20.00
2023-01-27T17:10:34.234Z,21.40
2023-01-27T17:13:45.809Z,18.00
2023-01-27T17:16:51.381Z,21.00
2023-01-27T17:20:01.863Z,20.25
2023-01-27T17:23:06.671Z,20.00
2023-01-27T17:26:16.877Z,22.00
2023-01-27T17:29:23.905Z,20.00
2023-01-27T17:32:30.976Z,21.00
2023-01-27T17:35:37.982Z,23.00
2023-01-27T17:38:46.505Z,21.00
2023-01-27T17:42:00.000Z,20.60
2023-01-27T17:45:25.737Z,22.00
2023-01-27T17:48:29.105Z,20.00
2023-01-27T17:51:37.039Z,20.00
2023-01-27T17:54:41.634Z,20.50
2023-01-27T17:57:48.030Z,22.00
2023-01-27T18:00:52.178Z,22.00
2023-01-27T18:03:58.113Z,22.40
2023-01-27T18:07:01.391Z,20.60
2023-01-27T18:10:24.480Z,22.00
2023-01-27T18:13:41.325Z,23.20
2023-01-27T18:16:44.935Z,22.60
2023-01-27T18:19:51.706Z,22.00
2023-01-27T18:22:55.100Z,22.00
2023-01-27T18:26:08.637Z,21.50
2023-01-27T18:29:30.480Z,22.00
2023-01-27T18:32:40.359Z,23.40
2023-01-27T18:35:44.156Z,22.00
2023-01-27T18:38:50.681Z,23.00
2023-01-27T18:41:54.672Z,22.40
2023-01-27T18:44:59.370Z,23.00
2023-01-27T18:48:03.962Z,17.80
2023-01-27T18:51:10.453Z,24.60
2023-01-27T18:54:13.974Z,22.40
2023-01-27T18:57:17.198Z,23.75
2023-01-27T19:00:23.903Z,22.00
2023-01-27T19:03:30.639Z,21.00
2023-01-27T19:06:33.974Z,22.60
2023-01-27T19:09:37.220Z,19.00
2023-01-27T19:12:40.631Z,22.00
2023-01-27T19:15:49.661Z,22.60
2023-01-27T19:18:52.948Z,20.60
2023-01-27T19:21:56.308Z,23.00
2023-01-27T19:24:59.920Z,19.20
2023-01-27T19:28:05.510Z,20.00
2023-01-27T19:31:10.680Z,23.00
2023-01-27T19:34:15.601Z,23.00
2023-01-27T19:37:19.766Z,21.40
2023-01-27T19:40:24.970Z,22.40
2023-01-27T19:43:28.213Z,22.00
2023-01-27T19:46:35.313Z,20.60
2023-01-27T19:49:38.507Z,22.00
2023-01-27T19:52:41.774Z,22.75
2023-01-27T19:55:46.937Z,25.60
2023-01-27T19:58:52.969Z,23.60
2023-01-27T20:01:57.677Z,23.00
2023-01-27T20:05:01.251Z,22.00
2023-01-27T20:08:04.605Z,22.67
2023-01-27T20:11:16.367Z,22.60
2023-01-27T20:14:20.917Z,21.00
2023-01-27T20:17:25.636Z,26.00
2023-01-27T20:20:29.787Z,22.00
2023-01-27T20:23:33.019Z,21.20
2023-01-27T20:26:37.564Z,23.00
2023-01-27T20:29:41.792Z,25.00
2023-01-27T20:32:46.864Z,22.40
2023-01-27T20:35:50.414Z,23.00
2023-01-27T20:38:53.729Z,25.00
2023-01-27T20:41:57.060Z,27.40
2023-01-27T20:45:00.301Z,23.50
2023-01-27T20:48:05.168Z,23.00
2023-01-27T20:51:11.247Z,23.50
2023-01-27T20:54:14.574Z,22.00
2023-01-27T20:57:20.282Z,24.60
2023-01-27T21:00:24.205Z,24.00
2023-01-27T21:03:28.827Z,24.00
2023-01-27T21:06:32.314Z,26.80
2023-01-27T21:09:35.714Z,23.00
2023-01-27T21:12:39.004Z,22.00
2023-01-27T21:15:47.655Z,24.60
2023-01-27T21:18:52.354Z,27.00
2023-01-27T21:21:55.779Z,25.00
2023-01-27T21:24:59.053Z,24.60
2023-01-27T21:28:02.893Z,23.60
2023-01-27T21:31:07.479Z,24.00
2023-01-27T21:34:12.799Z,26.00
2023-01-27T21:37:16.005Z,24.00
2023-01-27T21:40:19.415Z,25.60
2023-01-27T21:43:39.773Z,22.60
2023-01-27T21:46:43.126Z,28.00
2023-01-27T21:50:04.387Z,24.00
2023-01-27T21:53:10.332Z,23.00
2023-01-27T21:56:13.555Z,23.33
2023-01-27T21:59:17.470Z,24.50
2023-01-27T22:02:20.697Z,24.20
2023-01-27T22:05:26.376Z,26.00
2023-01-27T22:08:29.654Z,25.00
2023-01-27T22:11:32.961Z,23.40
2023-01-27T22:14:36.471Z,23.00
2023-01-27T22:17:39.873Z,24.00
2023-01-27T22:20:44.488Z,24.50
2023-01-27T22:23:48.070Z,24.00
2023-01-27T22:26:51.412Z,23.40
2023-01-27T22:29:55.051Z,23.40
2023-01-27T22:32:59.010Z,25.00
2023-01-27T22:36:05.538Z,24.00
2023-01-27T22:39:08.837Z,22.00
2023-01-27T22:42:12.172Z,23.20
2023-01-27T22:45:15.977Z,23.00
2023-01-27T22:48:19.473Z,22.00
2023-01-27T22:51:24.254Z,23.00
2023-01-27T22:54:28.063Z,24.00
2023-01-27T22:57:31.750Z,22.00
2023-01-27T23:00:35.041Z,20.80
2023-01-27T23:03:38.233Z,23.00
2023-01-27T23:06:43.258Z,22.60
2023-01-27T23:09:46.652Z,23.00
2023-01-27T23:12:49.959Z,21.80
2023-01-27T23:15:53.436Z,22.00
2023-01-27T23:18:56.693Z,24.00
2023-01-27T23:22:01.612Z,24.40
2023-01-27T23:25:05.167Z,21.00
2023-01-27T23:28:08.416Z,20.40
2023-01-27T23:31:12.886Z,24.00
2023-01-27T23:34:16.268Z,22.00
2023-01-27T23:37:20.907Z,22.80
2023-01-27T23:40:24.255Z,20.50
2023-01-27T23:43:27.630Z,22.50
2023-01-27T23:46:31.151Z,23.00
2023-01-27T23:49:34.683Z,22.50
2023-01-27T23:52:39.359Z,21.80
2023-01-27T23:55:42.901Z,24.00
2023-01-27T23:58:47.031Z,22.00
